Time;durP1;ratioP1;P1;durP2;ratioP2;P2;SDS_P1;SDS_P2;PMS_P1;PMS_P2;Temp;Humidity;BMP_temperature;BMP_pressure;BME280_temperature;BME280_humidity;BME280_pressure;Samples;Min_cycle;Max_cycle;Signal;HPM_P1;HPM_P2
2023/07/22 00:02:27;;;;;;;2.75;1.40;;;;;;;;;;5051194;28;20060;-59
2023/07/22 00:04:57;;;;;;;3.35;1.25;;;;;;;;;;5051484;28;20060;-57
2023/07/22 00:07:26;;;;;;;4.63;1.15;;;;;;;;;;5054252;28;20099;-58
2023/07/22 00:09:54;;;;;;;3.08;1.30;;;;;;;;;;5055631;28;20041;-59
2023/07/22 00:12:25;;;;;;;4.28;1.70;;;;;;;;;;5054452;28;20497;-58
2023/07/22 00:14:54;;;;;;;4.57;1.13;;;;;;;;;;5049352;28;20053;-57
2023/07/22 00:17:23;;;;;;;6.22;1.88;;;;;;;;;;5053808;28;20107;-59
2023/07/22 00:19:51;;;;;;;3.28;1.77;;;;;;;;;;5054545;28;20566;-59
2023/07/22 00:22:22;;;;;;;4.22;1.85;;;;;;;;;;5051163;28;20095;-58
2023/07/22 00:24:51;;;;;;;3.55;1.70;;;;;;;;;;5054457;28;20548;-60
2023/07/22 00:27:19;;;;;;;2.45;1.45;;;;;;;;;;5048441;28;20048;-60
2023/07/22 00:29:47;;;;;;;4.53;1.45;;;;;;;;;;5047765;28;20380;-60
2023/07/22 00:32:16;;;;;;;5.05;1.58;;;;;;;;;;5058592;28;20485;-60
2023/07/22 00:34:44;;;;;;;4.82;1.55;;;;;;;;;;5048306;28;20044;-60
2023/07/22 00:37:12;;;;;;;2.47;1.38;;;;;;;;;;5056211;28;20102;-60
2023/07/22 00:39:42;;;;;;;3.75;1.20;;;;;;;;;;5047769;28;20103;-60
2023/07/22 00:42:10;;;;;;;2.38;1.20;;;;;;;;;;5055210;28;20044;-63
2023/07/22 00:44:39;;;;;;;2.28;1.63;;;;;;;;;;5050303;28;20044;-57
2023/07/22 00:47:08;;;;;;;2.17;1.30;;;;;;;;;;5055316;28;20076;-58
2023/07/22 00:49:38;;;;;;;2.10;1.20;;;;;;;;;;5046541;28;20114;-59
2023/07/22 00:52:06;;;;;;;1.92;1.23;;;;;;;;;;5048013;28;20072;-58
2023/07/22 00:54:35;;;;;;;4.55;1.20;;;;;;;;;;5054275;28;20783;-57
2023/07/22 00:57:05;;;;;;;2.50;1.23;;;;;;;;;;5054619;28;20048;-57
2023/07/22 00:59:33;;;;;;;2.10;1.10;;;;;;;;;;5053307;28;20107;-58
2023/07/22 01:02:01;;;;;;;3.25;1.40;;;;;;;;;;5053169;28;20557;-57
2023/07/22 01:04:30;;;;;;;2.38;1.08;;;;;;;;;;5052812;22;20044;-60
2023/07/22 01:06:58;;;;;;;2.30;1.30;;;;;;;;;;5044178;28;20128;-58
2023/07/22 01:09:27;;;;;;;1.83;1.10;;;;;;;;;;5039183;28;20049;-57
2023/07/22 01:11:57;;;;;;;2.83;1.13;;;;;;;;;;5039255;28;20037;-61
2023/07/22 01:14:26;;;;;;;3.25;1.63;;;;;;;;;;5043273;28;20048;-58
2023/07/22 01:16:55;;;;;;;3.63;1.40;;;;;;;;;;5048025;28;20072;-60
2023/07/22 01:19:24;;;;;;;3.53;1.70;;;;;;;;;;5042397;28;20554;-58
2023/07/22 01:21:53;;;;;;;4.95;1.23;;;;;;;;;;5047418;28;20045;-57
2023/07/22 01:24:23;;;;;;;1.33;1.00;;;;;;;;;;5047103;28;20049;-59
2023/07/22 01:26:51;;;;;;;1.80;1.45;;;;;;;;;;5048393;28;20053;-61
2023/07/22 01:29:19;;;;;;;2.22;1.20;;;;;;;;;;5044684;28;20053;-58
2023/07/22 01:31:48;;;;;;;2.72;1.63;;;;;;;;;;5045826;28;20041;-57
2023/07/22 01:34:17;;;;;;;2.03;1.33;;;;;;;;;;5045909;28;20489;-61
2023/07/22 01:36:47;;;;;;;1.67;1.13;;;;;;;;;;5045488;28;20045;-61
2023/07/22 01:39:16;;;;;;;3.03;1.30;;;;;;;;;;5042737;28;20045;-62
2023/07/22 01:41:46;;;;;;;2.70;1.50;;;;;;;;;;5040676;28;20102;-58
2023/07/22 01:44:14;;;;;;;2.08;1.20;;;;;;;;;;5041458;28;20045;-63
2023/07/22 01:46:43;;;;;;;3.03;1.60;;;;;;;;;;5041097;28;20158;-58
2023/07/22 01:49:12;;;;;;;6.63;1.73;;;;;;;;;;5045622;28;20052;-59
2023/07/22 01:51:41;;;;;;;2.22;1.38;;;;;;;;;;5043254;28;20410;-60
2023/07/22 01:54:10;;;;;;;2.47;1.27;;;;;;;;;;5046639;28;20037;-59
2023/07/22 01:56:39;;;;;;;6.68;1.20;;;;;;;;;;5046386;28;20622;-57
2023/07/22 01:59:09;;;;;;;2.67;1.42;;;;;;;;;;5047110;28;20451;-58
2023/07/22 02:01:38;;;;;;;4.55;1.42;;;;;;;;;;5042994;28;20103;-58
2023/07/22 02:04:06;;;;;;;4.70;1.45;;;;;;;;;;5042567;28;22585;-63
2023/07/22 02:06:35;;;;;;;2.10;1.00;;;;;;;;;;5040060;28;20041;-59
2023/07/22 02:09:08;;;;;;;4.43;1.30;;;;;;;;;;5046231;28;20468;-59
2023/07/22 02:11:37;;;;;;;1.83;1.10;;;;;;;;;;5046871;28;20088;-58
2023/07/22 02:14:06;;;;;;;5.03;1.77;;;;;;;;;;5042533;28;20041;-62
2023/07/22 02:16:37;;;;;;;1.65;1.20;;;;;;;;;;5042179;28;20040;-58
2023/07/22 02:19:06;;;;;;;3.63;1.40;;;;;;;;;;5045243;28;20147;-58
2023/07/22 02:21:34;;;;;;;2.95;1.10;;;;;;;;;;5045821;28;20053;-62
2023/07/22 02:24:03;;;;;;;4.80;1.40;;;;;;;;;;5045401;28;20521;-58
2023/07/22 02:26:31;;;;;;;4.30;1.35;;;;;;;;;;5040948;28;20053;-62
2023/07/22 02:29:00;;;;;;;3.53;1.38;;;;;;;;;;5047269;28;20461;-58
2023/07/22 02:31:28;;;;;;;4.15;1.38;;;;;;;;;;5046688;28;20057;-67
2023/07/22 02:33:58;;;;;;;1.80;1.23;;;;;;;;;;5046590;28;20041;-58
2023/07/22 02:36:26;;;;;;;2.95;1.40;;;;;;;;;;5041041;28;20049;-57
2023/07/22 02:38:55;;;;;;;5.93;1.65;;;;;;;;;;5047458;28;20056;-58
2023/07/22 02:41:24;;;;;;;2.42;1.67;;;;;;;;;;5041891;28;20063;-61
2023/07/22 02:43:52;;;;;;;3.25;1.50;;;;;;;;;;5045675;28;20037;-59
2023/07/22 02:46:20;;;;;;;2.35;1.60;;;;;;;;;;5043700;28;20176;-59
2023/07/22 02:48:49;;;;;;;3.40;1.60;;;;;;;;;;5048699;28;20056;-58
2023/07/22 02:51:18;;;;;;;1.90;1.35;;;;;;;;;;5045135;28;20080;-58
2023/07/22 02:53:47;;;;;;;7.00;1.58;;;;;;;;;;5050766;28;20476;-63
2023/07/22 02:56:15;;;;;;;3.15;1.42;;;;;;;;;;5047724;28;20142;-61
2023/07/22 02:58:44;;;;;;;4.72;1.65;;;;;;;;;;5050755;28;20098;-61
2023/07/22 03:01:13;;;;;;;2.40;1.48;;;;;;;;;;5045567;28;20095;-58
2023/07/22 03:03:41;;;;;;;3.25;1.35;;;;;;;;;;5050471;28;20083;-66
2023/07/22 03:06:10;;;;;;;2.78;1.60;;;;;;;;;;5045566;28;20099;-62
2023/07/22 03:08:40;;;;;;;2.30;1.60;;;;;;;;;;5045720;28;20052;-58
2023/07/22 03:11:09;;;;;;;2.72;1.65;;;;;;;;;;5046819;28;20041;-58
2023/07/22 03:13:37;;;;;;;3.67;1.65;;;;;;;;;;5048598;28;20068;-58
2023/07/22 03:16:05;;;;;;;3.33;1.50;;;;;;;;;;5046103;28;20094;-58
2023/07/22 03:18:34;;;;;;;2.60;1.50;;;;;;;;;;5050730;28;20067;-61
2023/07/22 03:21:02;;;;;;;3.03;1.77;;;;;;;;;;5047691;28;20041;-61
2023/07/22 03:23:31;;;;;;;2.85;1.65;;;;;;;;;;5050129;28;20124;-62
2023/07/22 03:26:00;;;;;;;4.32;1.80;;;;;;;;;;5047071;28;20098;-57
2023/07/22 03:28:29;;;;;;;2.58;1.50;;;;;;;;;;5049303;28;20573;-58
2023/07/22 03:30:57;;;;;;;2.95;1.40;;;;;;;;;;5041798;28;20049;-58
2023/07/22 03:33:26;;;;;;;2.85;1.48;;;;;;;;;;5047728;28;20053;-60
2023/07/22 03:35:54;;;;;;;2.47;1.50;;;;;;;;;;5044887;28;20046;-61
2023/07/22 03:38:22;;;;;;;3.17;1.80;;;;;;;;;;5050464;28;20052;-62
2023/07/22 03:40:52;;;;;;;2.28;1.70;;;;;;;;;;5046258;28;20065;-58
2023/07/22 03:43:22;;;;;;;4.95;1.67;;;;;;;;;;5044947;28;20107;-61
2023/07/22 03:45:51;;;;;;;12.27;3.53;;;;;;;;;;5048492;28;20054;-59
2023/07/22 03:48:19;;;;;;;5.43;2.60;;;;;;;;;;5048544;28;20049;-58
2023/07/22 03:50:47;;;;;;;8.35;2.72;;;;;;;;;;5047052;28;20512;-57
2023/07/22 03:53:20;;;;;;;6.18;2.28;;;;;;;;;;5046213;28;20052;-57
2023/07/22 03:55:48;;;;;;;3.97;2.17;;;;;;;;;;5046612;28;20118;-57
2023/07/22 03:58:16;;;;;;;3.30;1.65;;;;;;;;;;5048250;28;20107;-59
2023/07/22 04:00:49;;;;;;;2.80;1.63;;;;;;;;;;5045425;28;20076;-62
2023/07/22 04:03:17;;;;;;;2.83;1.48;;;;;;;;;;5047022;28;20057;-60
2023/07/22 04:05:46;;;;;;;3.40;1.67;;;;;;;;;;5043953;28;20571;-58
2023/07/22 04:08:14;;;;;;;2.40;1.48;;;;;;;;;;5048392;28;20102;-59
2023/07/22 04:10:42;;;;;;;2.92;1.70;;;;;;;;;;5044572;28;20056;-59
2023/07/22 04:13:11;;;;;;;3.63;1.80;;;;;;;;;;5049837;28;20452;-60
2023/07/22 04:15:39;;;;;;;3.97;1.75;;;;;;;;;;5041709;28;20045;-58
2023/07/22 04:18:09;;;;;;;2.58;1.80;;;;;;;;;;5046507;28;20049;-58
2023/07/22 04:20:37;;;;;;;2.25;1.35;;;;;;;;;;5042322;28;20041;-61
2023/07/22 04:23:05;;;;;;;3.90;1.95;;;;;;;;;;5040084;28;20072;-63
2023/07/22 04:25:34;;;;;;;8.35;2.05;;;;;;;;;;5041948;28;20076;-62
2023/07/22 04:28:03;;;;;;;1.83;1.40;;;;;;;;;;5046349;28;20551;-58
2023/07/22 04:30:31;;;;;;;3.50;1.83;;;;;;;;;;5045522;28;20077;-59
2023/07/22 04:33:00;;;;;;;4.25;1.90;;;;;;;;;;5050008;28;20049;-61
2023/07/22 04:35:34;;;;;;;3.00;1.67;;;;;;;;;;5040677;28;20211;-58
2023/07/22 04:38:03;;;;;;;5.82;2.15;;;;;;;;;;5048872;28;20083;-58
2023/07/22 04:40:31;;;;;;;2.58;1.60;;;;;;;;;;5040089;28;20092;-59
2023/07/22 04:42:59;;;;;;;5.95;2.25;;;;;;;;;;5047723;28;20137;-59
2023/07/22 04:45:28;;;;;;;3.15;1.75;;;;;;;;;;5039596;28;20149;-58
2023/07/22 04:47:56;;;;;;;3.42;2.05;;;;;;;;;;5042990;28;20549;-60
2023/07/22 04:50:24;;;;;;;3.08;1.98;;;;;;;;;;5040658;28;20052;-59
2023/07/22 04:52:55;;;;;;;6.22;1.63;;;;;;;;;;5044728;28;20072;-60
2023/07/22 04:55:24;;;;;;;3.33;1.77;;;;;;;;;;5042759;28;20071;-57
2023/07/22 04:57:52;;;;;;;3.28;1.75;;;;;;;;;;5041663;28;20118;-59
2023/07/22 05:00:22;;;;;;;4.38;1.90;;;;;;;;;;5039775;28;20110;-59
2023/07/22 05:02:52;;;;;;;4.10;1.88;;;;;;;;;;5047624;28;20144;-59
2023/07/22 05:05:21;;;;;;;3.20;1.60;;;;;;;;;;5040534;28;20053;-60
2023/07/22 05:07:50;;;;;;;3.38;2.17;;;;;;;;;;5043375;28;20067;-55
2023/07/22 05:10:20;;;;;;;4.40;2.10;;;;;;;;;;5048906;28;20041;-56
2023/07/22 05:12:48;;;;;;;3.33;2.08;;;;;;;;;;5046928;28;20072;-58
2023/07/22 05:15:17;;;;;;;3.38;1.83;;;;;;;;;;5039149;28;20599;-55
2023/07/22 05:17:51;;;;;;;3.35;1.85;;;;;;;;;;5044636;28;20460;-56
2023/07/22 05:20:26;;;;;;;8.45;1.90;;;;;;;;;;5043754;28;20045;-57
2023/07/22 05:23:01;;;;;;;;;;;;;;;;;;5048145;28;20106;-60
2023/07/22 05:25:31;;;;;;;3.55;1.58;;;;;;;;;;5042588;28;20455;-58
2023/07/22 05:28:05;;;;;;;4.07;1.90;;;;;;;;;;5044858;28;20390;-60
2023/07/22 05:30:33;;;;;;;5.03;2.45;;;;;;;;;;5043931;28;20041;-62
2023/07/22 05:33:08;;;;;;;4.10;1.65;;;;;;;;;;5069826;28;20308;-59
2023/07/22 05:35:37;;;;;;;5.68;2.05;;;;;;;;;;5061458;28;20084;-59
2023/07/22 05:38:14;;;;;;;4.00;2.10;;;;;;;;;;5055855;28;20048;-64
2023/07/22 05:40:51;;;;;;;3.40;2.20;;;;;;;;;;5065952;28;20056;-57
2023/07/22 05:43:19;;;;;;;3.97;1.60;;;;;;;;;;5065231;28;20048;-57
2023/07/22 05:45:54;;;;;;;2.97;1.70;;;;;;;;;;5063389;28;20542;-60
2023/07/22 05:48:29;;;;;;;;;;;;;;;;;;5068353;28;20503;-59
2023/07/22 05:51:04;;;;;;;3.70;1.92;;;;;;;;;;5057142;28;20383;-62
2023/07/22 05:53:39;;;;;;;3.13;1.50;;;;;;;;;;5058663;28;20583;-62
2023/07/22 05:56:09;;;;;;;3.40;1.52;;;;;;;;;;5061279;28;20040;-60
2023/07/22 05:58:44;;;;;;;4.57;2.55;;;;;;;;;;5071579;28;20141;-62
2023/07/22 06:01:19;;;;;;;5.18;1.73;;;;;;;;;;5070715;28;20067;-59
2023/07/22 06:03:48;;;;;;;5.07;2.17;;;;;;;;;;5065649;28;20147;-59
2023/07/22 06:06:30;;;;;;;5.43;1.70;;;;;;;;;;5040142;28;20464;-58
2023/07/22 06:08:59;;;;;;;3.10;1.70;;;;;;;;;;5056419;28;20077;-59
2023/07/22 06:11:35;;;;;;;3.92;2.03;;;;;;;;;;5044986;28;20061;-57
2023/07/22 06:14:09;;;;;;;2.15;1.27;;;;;;;;;;5061656;28;20088;-58
2023/07/22 06:16:38;;;;;;;4.18;1.85;;;;;;;;;;5061059;28;20056;-56
2023/07/22 06:19:14;;;;;;;3.15;1.73;;;;;;;;;;5067989;28;20051;-58
2023/07/22 06:21:43;;;;;;;5.00;1.95;;;;;;;;;;5067001;28;20254;-57
2023/07/22 06:24:17;;;;;;;3.85;1.90;;;;;;;;;;5060734;28;20127;-57
2023/07/22 06:26:47;;;;;;;3.35;1.13;;;;;;;;;;5056905;28;20291;-57
2023/07/22 06:29:22;;;;;;;4.13;1.65;;;;;;;;;;5066587;28;20540;-58
2023/07/22 06:31:51;;;;;;;3.25;1.40;;;;;;;;;;5070369;28;20125;-61
2023/07/22 06:34:25;;;;;;;2.15;1.20;;;;;;;;;;5065746;28;20044;-62
2023/07/22 06:36:54;;;;;;;2.85;1.50;;;;;;;;;;5070164;28;20183;-60
2023/07/22 06:39:28;;;;;;;2.78;1.67;;;;;;;;;;5063104;28;20484;-67
2023/07/22 06:42:05;;;;;;;3.70;1.30;;;;;;;;;;5070268;28;20413;-60
2023/07/22 06:44:33;;;;;;;3.78;1.58;;;;;;;;;;5065375;28;20327;-57
2023/07/22 06:47:08;;;;;;;2.92;1.38;;;;;;;;;;5058561;28;20044;-61
2023/07/22 06:49:37;;;;;;;4.35;1.65;;;;;;;;;;5062520;28;20068;-64
2023/07/22 06:52:14;;;;;;;2.10;1.20;;;;;;;;;;5039553;28;20044;-61
2023/07/22 06:54:49;;;;;;;;;;;;;;;;;;5065494;28;20126;-59
2023/07/22 06:57:26;;;;;;;1.37;1.03;;;;;;;;;;5063355;28;20144;-63
2023/07/22 06:59:55;;;;;;;2.33;1.25;;;;;;;;;;5071469;28;20544;-59
2023/07/22 07:02:29;;;;;;;3.00;1.42;;;;;;;;;;5084987;28;20052;-66
2023/07/22 07:05:17;;;;;;;2.97;1.73;;;;;;;;;;5083162;28;20040;-62
2023/07/22 07:07:54;;;;;;;6.43;1.60;;;;;;;;;;5079122;28;20044;-65
2023/07/22 07:10:29;;;;;;;;;;;;;;;;;;5079113;28;20052;-60
2023/07/22 07:13:06;;;;;;;3.27;1.40;;;;;;;;;;5078702;28;20016;-61
2023/07/22 07:15:40;;;;;;;3.60;1.25;;;;;;;;;;5072151;28;20390;-60
2023/07/22 07:18:09;;;;;;;4.38;1.48;;;;;;;;;;5079293;28;20123;-62
2023/07/22 07:20:43;;;;;;;1.58;1.30;;;;;;;;;;5069805;28;20509;-62
2023/07/22 07:23:12;;;;;;;2.67;1.10;;;;;;;;;;5065323;28;20110;-62
2023/07/22 07:25:47;;;;;;;2.60;1.40;;;;;;;;;;5056251;28;20057;-64
2023/07/22 07:28:18;;;;;;;4.43;1.40;;;;;;;;;;5073958;28;20310;-60
2023/07/22 07:30:46;;;;;;;2.88;1.30;;;;;;;;;;5069257;28;20041;-59
2023/07/22 07:33:21;;;;;;;3.70;1.33;;;;;;;;;;5067417;28;20137;-61
2023/07/22 07:35:50;;;;;;;2.08;1.20;;;;;;;;;;5078588;28;20451;-60
2023/07/22 07:38:24;;;;;;;2.35;1.40;;;;;;;;;;5079730;28;20080;-61
2023/07/22 07:40:53;;;;;;;2.60;1.40;;;;;;;;;;5081497;28;20615;-64
2023/07/22 07:43:30;;;;;;;2.25;1.30;;;;;;;;;;5082604;28;20496;-61
2023/07/22 07:46:14;;;;;;;1.95;1.00;;;;;;;;;;5075471;28;20078;-60
2023/07/22 07:48:42;;;;;;;3.05;1.30;;;;;;;;;;5067059;28;20053;-62
2023/07/22 07:51:17;;;;;;;;;;;;;;;;;;5066826;28;20048;-61
2023/07/22 07:53:46;;;;;;;1.25;0.85;;;;;;;;;;5076110;28;20372;-56
2023/07/22 07:56:15;;;;;;;2.30;1.23;;;;;;;;;;5076201;28;20466;-60
2023/07/22 07:58:52;;;;;;;2.50;1.10;;;;;;;;;;5060146;28;20040;-62
2023/07/22 08:01:27;;;;;;;3.10;1.25;;;;;;;;;;5072661;28;20123;-59
2023/07/22 08:04:02;;;;;;;2.92;0.98;;;;;;;;;;5076501;28;20052;-58
2023/07/22 08:06:44;;;;;;;2.15;1.33;;;;;;;;;;5075583;28;20040;-62
2023/07/22 08:09:18;;;;;;;3.25;1.23;;;;;;;;;;5077125;28;20036;-60
2023/07/22 08:11:53;;;;;;;2.55;1.17;;;;;;;;;;5083801;28;20120;-60
2023/07/22 08:14:23;;;;;;;3.42;1.25;;;;;;;;;;5077561;28;20049;-66
2023/07/22 08:16:58;;;;;;;2.65;1.10;;;;;;;;;;5077109;28;20589;-63
2023/07/22 08:19:33;;;;;;;;;;;;;;;;;;5066324;28;20048;-63
2023/07/22 08:22:02;;;;;;;2.28;1.20;;;;;;;;;;5059423;28;19943;-62
2023/07/22 08:24:37;;;;;;;2.20;1.17;;;;;;;;;;5054699;28;20077;-62
2023/07/22 08:27:06;;;;;;;2.13;0.93;;;;;;;;;;5043474;28;20462;-63
2023/07/22 08:29:42;;;;;;;1.10;0.90;;;;;;;;;;5037785;28;20056;-69
2023/07/22 08:32:16;;;;;;;2.80;1.10;;;;;;;;;;5039834;28;20207;-68
2023/07/22 08:34:52;;;;;;;1.88;1.00;;;;;;;;;;5051729;28;20070;-63
2023/07/22 08:37:26;;;;;;;;;;;;;;;;;;5062617;28;20452;-67
2023/07/22 08:39:55;;;;;;;2.65;1.52;;;;;;;;;;5062811;28;19975;-63
2023/07/22 08:42:31;;;;;;;2.53;1.10;;;;;;;;;;5064715;28;20157;-66
2023/07/22 08:45:02;;;;;;;2.10;1.00;;;;;;;;;;5061590;28;20064;-63
2023/07/22 08:47:39;;;;;;;2.58;1.38;;;;;;;;;;5062072;28;20056;-71
2023/07/22 08:50:08;;;;;;;4.07;1.80;;;;;;;;;;5064072;28;20516;-62
2023/07/22 08:52:44;;;;;;;2.95;1.35;;;;;;;;;;5061443;28;20121;-64
2023/07/22 08:55:13;;;;;;;3.13;1.48;;;;;;;;;;5062145;28;20441;-64
2023/07/22 08:57:43;;;;;;;1.60;0.95;;;;;;;;;;5061130;28;20045;-62
2023/07/22 09:00:13;;;;;;;3.15;1.40;;;;;;;;;;5062956;28;20135;-60
2023/07/22 09:02:42;;;;;;;1.25;0.90;;;;;;;;;;5063692;28;20121;-60
2023/07/22 09:05:11;;;;;;;3.72;1.13;;;;;;;;;;5062425;28;20125;-61
2023/07/22 09:07:39;;;;;;;2.30;1.30;;;;;;;;;;5064440;28;20055;-60
2023/07/22 09:10:10;;;;;;;2.10;1.15;;;;;;;;;;5058239;28;20051;-65
2023/07/22 09:12:40;;;;;;;2.63;1.27;;;;;;;;;;5063806;28;20137;-60
2023/07/22 09:15:11;;;;;;;1.80;1.08;;;;;;;;;;5061322;28;20062;-63
2023/07/22 09:17:42;;;;;;;1.75;0.80;;;;;;;;;;5060738;28;20052;-59
2023/07/22 09:20:14;;;;;;;1.40;0.80;;;;;;;;;;5059397;28;20055;-61
2023/07/22 09:22:45;;;;;;;2.13;1.10;;;;;;;;;;5063044;28;20543;-59
2023/07/22 09:25:17;;;;;;;1.30;0.80;;;;;;;;;;5059277;28;20799;-60
2023/07/22 09:27:45;;;;;;;1.50;0.90;;;;;;;;;;5064106;28;20045;-58
2023/07/22 09:30:22;;;;;;;1.48;0.90;;;;;;;;;;5062712;28;20049;-61
2023/07/22 09:32:52;;;;;;;2.67;0.98;;;;;;;;;;5061250;28;20534;-61
2023/07/22 09:35:20;;;;;;;1.15;0.80;;;;;;;;;;5061719;28;20578;-60
2023/07/22 09:37:49;;;;;;;1.95;1.25;;;;;;;;;;5064674;28;20335;-63
2023/07/22 09:40:21;;;;;;;1.80;0.90;;;;;;;;;;5062057;28;20062;-64
2023/07/22 09:42:50;;;;;;;0.82;0.70;;;;;;;;;;5064586;28;20087;-66
2023/07/22 09:45:19;;;;;;;1.55;1.00;;;;;;;;;;5060523;28;20056;-60
2023/07/22 09:47:49;;;;;;;1.20;0.85;;;;;;;;;;5061701;28;20138;-63
2023/07/22 09:50:21;;;;;;;3.45;1.02;;;;;;;;;;5063009;28;20053;-64
2023/07/22 09:52:50;;;;;;;1.67;1.00;;;;;;;;;;5061519;28;20054;-64
2023/07/22 09:55:19;;;;;;;1.88;1.05;;;;;;;;;;5063271;28;20041;-67
2023/07/22 09:57:48;;;;;;;4.93;1.10;;;;;;;;;;5068465;28;20192;-64
2023/07/22 10:00:19;;;;;;;1.88;1.10;;;;;;;;;;5071597;28;20089;-60
2023/07/22 10:02:49;;;;;;;0.93;0.60;;;;;;;;;;5071832;28;20044;-60
2023/07/22 10:05:18;;;;;;;1.48;0.82;;;;;;;;;;5068457;28;20051;-61
2023/07/22 10:07:49;;;;;;;2.30;1.00;;;;;;;;;;5067611;28;20044;-65
2023/07/22 10:10:18;;;;;;;1.88;1.17;;;;;;;;;;5071726;28;20048;-63
2023/07/22 10:12:47;;;;;;;1.58;1.08;;;;;;;;;;5069251;28;21573;-62
2023/07/22 10:15:17;;;;;;;1.50;1.00;;;;;;;;;;5069505;28;20113;-68
2023/07/22 10:17:46;;;;;;;1.90;0.95;;;;;;;;;;5071569;28;20049;-62
2023/07/22 10:20:15;;;;;;;2.78;1.15;;;;;;;;;;5071697;28;20043;-61
2023/07/22 10:22:45;;;;;;;4.97;1.30;;;;;;;;;;5071725;28;20405;-62
2023/07/22 10:25:16;;;;;;;1.45;0.75;;;;;;;;;;5067529;28;20048;-65
2023/07/22 10:27:44;;;;;;;1.92;0.93;;;;;;;;;;5068159;28;20075;-59
2023/07/22 10:30:14;;;;;;;2.50;0.88;;;;;;;;;;5066991;28;20150;-61
2023/07/22 10:32:43;;;;;;;1.23;0.88;;;;;;;;;;5073220;28;20048;-66
2023/07/22 10:35:18;;;;;;;1.38;0.80;;;;;;;;;;5064489;28;20871;-59
2023/07/22 10:37:47;;;;;;;1.55;1.02;;;;;;;;;;5065883;28;20447;-60
2023/07/22 10:40:21;;;;;;;1.92;0.98;;;;;;;;;;5071935;28;20044;-60
2023/07/22 10:42:58;;;;;;;2.30;0.93;;;;;;;;;;5068845;28;20634;-69
2023/07/22 10:45:28;;;;;;;2.15;0.95;;;;;;;;;;5070457;28;20147;-61
2023/07/22 10:48:08;;;;;;;1.45;0.80;;;;;;;;;;5065719;28;20150;-59
2023/07/22 10:50:43;;;;;;;1.80;1.10;;;;;;;;;;5067561;28;20044;-61
2023/07/22 10:53:12;;;;;;;2.72;1.10;;;;;;;;;;5067189;28;20551;-62
2023/07/22 10:55:59;;;;;;;1.98;0.77;;;;;;;;;;5068750;28;20052;-65
2023/07/22 10:58:29;;;;;;;3.20;1.20;;;;;;;;;;5068225;28;20363;-63
2023/07/22 11:00:57;;;;;;;2.55;1.23;;;;;;;;;;5068416;28;20130;-59
2023/07/22 11:03:25;;;;;;;2.50;1.25;;;;;;;;;;5066987;28;20086;-60
2023/07/22 11:05:55;;;;;;;4.20;1.42;;;;;;;;;;5066587;28;20394;-60
2023/07/22 11:08:37;;;;;;;2.13;1.13;;;;;;;;;;5067559;28;20052;-59
2023/07/22 11:11:06;;;;;;;1.20;0.75;;;;;;;;;;5067773;28;20041;-72
2023/07/22 11:13:39;;;;;;;1.35;0.80;;;;;;;;;;5070272;28;20045;-60
2023/07/22 11:16:11;;;;;;;1.95;1.13;;;;;;;;;;5068388;28;20051;-64
2023/07/22 11:18:40;;;;;;;3.47;1.20;;;;;;;;;;5066837;28;20094;-65
2023/07/22 11:21:09;;;;;;;1.55;1.00;;;;;;;;;;5062024;28;20110;-64
2023/07/22 11:23:37;;;;;;;3.00;1.30;;;;;;;;;;5057104;28;20090;-61
2023/07/22 11:26:06;;;;;;;3.40;1.33;;;;;;;;;;5068676;28;20052;-62
2023/07/22 11:28:34;;;;;;;3.25;1.02;;;;;;;;;;5064667;28;20460;-64
2023/07/22 11:31:05;;;;;;;2.70;0.90;;;;;;;;;;5067388;28;20500;-62
2023/07/22 11:33:39;;;;;;;2.17;0.93;;;;;;;;;;5070436;28;20052;-59
2023/07/22 11:36:08;;;;;;;1.83;0.80;;;;;;;;;;5070003;28;20036;-58
2023/07/22 11:38:36;;;;;;;2.65;1.02;;;;;;;;;;5064705;28;20053;-60
2023/07/22 11:41:06;;;;;;;2.90;1.30;;;;;;;;;;5064994;28;20098;-63
2023/07/22 11:43:34;;;;;;;2.22;1.23;;;;;;;;;;5062929;28;20051;-64
2023/07/22 11:46:06;;;;;;;1.17;0.93;;;;;;;;;;5062874;28;20391;-59
2023/07/22 11:48:34;;;;;;;2.45;1.10;;;;;;;;;;5064692;28;20477;-61
2023/07/22 11:51:03;;;;;;;2.88;1.00;;;;;;;;;;5065394;28;20040;-62
2023/07/22 11:53:31;;;;;;;1.70;0.90;;;;;;;;;;5063915;28;20051;-62
2023/07/22 11:56:00;;;;;;;2.28;0.90;;;;;;;;;;5069994;28;20501;-60
2023/07/22 11:58:29;;;;;;;1.10;0.93;;;;;;;;;;5070081;28;20131;-60
2023/07/22 12:01:05;;;;;;;2.63;0.80;;;;;;;;;;5062962;28;20044;-59
2023/07/22 12:03:34;;;;;;;2.00;0.90;;;;;;;;;;5066564;28;20075;-61
2023/07/22 12:06:03;;;;;;;2.63;1.15;;;;;;;;;;5068023;28;20048;-70
2023/07/22 12:08:32;;;;;;;1.38;0.80;;;;;;;;;;5066061;28;20523;-60
2023/07/22 12:11:01;;;;;;;2.40;1.00;;;;;;;;;;5068541;28;20060;-62
2023/07/22 12:13:29;;;;;;;2.13;1.08;;;;;;;;;;5067747;28;20049;-60
2023/07/22 12:16:01;;;;;;;1.35;0.93;;;;;;;;;;5067412;28;20513;-62
2023/07/22 12:18:42;;;;;;;1.77;0.88;;;;;;;;;;5067205;28;20049;-63
2023/07/22 12:21:10;;;;;;;2.38;1.02;;;;;;;;;;5062107;28;20045;-58
2023/07/22 12:23:39;;;;;;;1.33;0.88;;;;;;;;;;5056599;28;20056;-59
2023/07/22 12:26:07;;;;;;;2.45;1.30;;;;;;;;;;5052387;28;20060;-59
2023/07/22 12:28:36;;;;;;;2.63;0.95;;;;;;;;;;5065663;28;20117;-63
2023/07/22 12:31:04;;;;;;;1.83;1.23;;;;;;;;;;5063018;28;20606;-60
2023/07/22 12:33:34;;;;;;;1.90;0.82;;;;;;;;;;5069035;28;20048;-59
2023/07/22 12:36:02;;;;;;;1.02;0.70;;;;;;;;;;5066300;28;20080;-66
2023/07/22 12:38:31;;;;;;;1.65;0.73;;;;;;;;;;5068028;28;20052;-60
2023/07/22 12:40:59;;;;;;;1.23;0.90;;;;;;;;;;5067725;28;20405;-59
2023/07/22 12:43:27;;;;;;;0.93;0.70;;;;;;;;;;5068668;28;20106;-59
2023/07/22 12:45:56;;;;;;;2.28;1.20;;;;;;;;;;5065708;28;20052;-59
2023/07/22 12:48:25;;;;;;;3.67;1.13;;;;;;;;;;5069488;28;20098;-58
2023/07/22 12:50:54;;;;;;;2.15;1.13;;;;;;;;;;5068388;28;20443;-60
2023/07/22 12:53:23;;;;;;;1.80;0.85;;;;;;;;;;5063527;28;20497;-59
2023/07/22 12:55:51;;;;;;;1.85;1.08;;;;;;;;;;5060177;28;20109;-59
2023/07/22 12:58:20;;;;;;;1.42;1.02;;;;;;;;;;5068761;28;20549;-59
2023/07/22 13:00:49;;;;;;;0.60;0.60;;;;;;;;;;5061291;28;20143;-58
2023/07/22 13:03:17;;;;;;;1.58;0.90;;;;;;;;;;5067200;28;20098;-60
2023/07/22 13:05:45;;;;;;;1.40;0.98;;;;;;;;;;5053798;28;20513;-62
2023/07/22 13:08:18;;;;;;;1.08;0.88;;;;;;;;;;5040250;28;20046;-61
2023/07/22 13:10:47;;;;;;;1.30;0.90;;;;;;;;;;5059971;28;20052;-58
2023/07/22 13:13:15;;;;;;;2.15;1.02;;;;;;;;;;5045720;28;20057;-58
2023/07/22 13:15:43;;;;;;;1.83;1.05;;;;;;;;;;5071927;28;20089;-60
2023/07/22 13:18:13;;;;;;;1.40;0.85;;;;;;;;;;5073993;28;20044;-62
2023/07/22 13:20:42;;;;;;;2.22;1.10;;;;;;;;;;5071355;28;20067;-66
2023/07/22 13:23:10;;;;;;;1.52;0.80;;;;;;;;;;5064919;28;20495;-58
2023/07/22 13:25:40;;;;;;;4.40;1.25;;;;;;;;;;5066426;28;20094;-60
2023/07/22 13:28:08;;;;;;;2.03;1.00;;;;;;;;;;5061036;28;20127;-61
2023/07/22 13:30:36;;;;;;;1.55;1.00;;;;;;;;;;5064993;28;20136;-62
2023/07/22 13:33:05;;;;;;;2.17;1.13;;;;;;;;;;5058429;28;20045;-62
2023/07/22 13:35:33;;;;;;;2.05;1.17;;;;;;;;;;5056609;28;20076;-58
2023/07/22 13:38:02;;;;;;;1.75;0.90;;;;;;;;;;5049928;28;20498;-64
2023/07/22 13:40:30;;;;;;;1.50;1.05;;;;;;;;;;5053960;28;20041;-59
2023/07/22 13:43:00;;;;;;;3.72;1.10;;;;;;;;;;5065821;28;20548;-65
2023/07/22 13:45:28;;;;;;;1.75;1.13;;;;;;;;;;5069385;28;20080;-63
2023/07/22 13:47:57;;;;;;;2.58;1.10;;;;;;;;;;5066966;28;20048;-58
2023/07/22 13:50:25;;;;;;;1.48;1.00;;;;;;;;;;5068227;28;20079;-60
2023/07/22 13:52:53;;;;;;;3.13;1.23;;;;;;;;;;5069897;28;20048;-59
2023/07/22 13:55:22;;;;;;;1.80;0.90;;;;;;;;;;5064409;28;20134;-58
2023/07/22 13:57:50;;;;;;;3.38;1.15;;;;;;;;;;5069848;28;20131;-59
2023/07/22 14:00:20;;;;;;;6.50;3.05;;;;;;;;;;5062294;28;20124;-59
2023/07/22 14:02:48;;;;;;;2.83;1.40;;;;;;;;;;5067746;28;20084;-61
2023/07/22 14:05:17;;;;;;;1.70;1.17;;;;;;;;;;5068903;28;20106;-59
2023/07/22 14:07:45;;;;;;;4.70;2.08;;;;;;;;;;5073925;28;20053;-59
2023/07/22 14:10:14;;;;;;;4.85;3.10;;;;;;;;;;5070063;28;20459;-59
2023/07/22 14:12:42;;;;;;;6.63;2.67;;;;;;;;;;5065328;28;20107;-59
2023/07/22 14:15:11;;;;;;;8.70;4.93;;;;;;;;;;5074651;28;20105;-68
2023/07/22 14:17:40;;;;;;;2.78;1.85;;;;;;;;;;5073978;28;20055;-64
2023/07/22 14:20:11;;;;;;;6.18;2.75;;;;;;;;;;5064538;28;20504;-59
2023/07/22 14:22:39;;;;;;;10.65;5.45;;;;;;;;;;5063771;28;20076;-69
2023/07/22 14:25:08;;;;;;;10.00;6.90;;;;;;;;;;5062451;28;20060;-58
2023/07/22 14:27:37;;;;;;;213.88;160.43;;;;;;;;;;5057191;28;20053;-61
2023/07/22 14:30:05;;;;;;;18.85;12.68;;;;;;;;;;5076218;28;20458;-57
2023/07/22 14:32:34;;;;;;;7.32;3.97;;;;;;;;;;5058980;28;20041;-58
2023/07/22 14:35:04;;;;;;;2.70;1.50;;;;;;;;;;5065061;28;20048;-58
2023/07/22 14:37:33;;;;;;;5.45;3.20;;;;;;;;;;5059491;28;20068;-58
2023/07/22 14:40:02;;;;;;;18.05;8.13;;;;;;;;;;5062191;28;20118;-59
2023/07/22 14:42:30;;;;;;;17.50;12.07;;;;;;;;;;5071127;28;20087;-58
2023/07/22 14:44:58;;;;;;;8.88;6.95;;;;;;;;;;5061811;28;20129;-59
2023/07/22 14:47:27;;;;;;;4.22;2.85;;;;;;;;;;5068902;28;20063;-59
2023/07/22 14:49:56;;;;;;;4.47;2.58;;;;;;;;;;5076431;28;20142;-58
2023/07/22 14:52:25;;;;;;;32.60;10.05;;;;;;;;;;5066041;28;20041;-59
2023/07/22 14:54:54;;;;;;;2.90;2.20;;;;;;;;;;5061989;28;20055;-68
2023/07/22 14:57:22;;;;;;;1.80;1.42;;;;;;;;;;5065362;28;20094;-59
2023/07/22 14:59:51;;;;;;;2.60;1.30;;;;;;;;;;5072548;28;20045;-61
2023/07/22 15:02:19;;;;;;;4.68;2.92;;;;;;;;;;5067390;28;20439;-68
2023/07/22 15:04:47;;;;;;;3.63;1.88;;;;;;;;;;5082024;28;20148;-58